Promontory, Utah
Current Conditions -  °F | °C
As of 1:35 PM on Monday 22 Dec 2014 (Local Time) from KBMC Reporting Station
Broken Clouds Broken Clouds  
Wind Chill: 34°   Ceiling: 5000
Heat Index: 43°   Visibility: 10mi
Dew Point: 31°   Wind: 20mph
Humidity: 62%   Direction: 330°NNW
Pressure: 29.99"   Gusts: 26mph
Location:  41.5038°N, 112.48°W
Report Text: KBMC 222035Z AUTO 33017G23KT 10SM SCT037 BKN050 06/M01 A2999 RMK AO1 T00601007
Loading
Personal Weather Stations






























Interactive Weather Map New forecast layout! Learn more

10-Day Weather Forecast

Advertisements
Track Severe Weather on mobile